Time;durP1;ratioP1;P1;durP2;ratioP2;P2;SDS_P1;SDS_P2;PMS_P1;PMS_P2;Temp;Humidity;BMP_temperature;BMP_pressure;BME280_temperature;BME280_humidity;BME280_pressure;Samples;Min_cycle;Max_cycle;Signal;HPM_P1;HPM_P2
2022/10/28 00:02:00;;;;;;;13.40;6.88;;;;;;;;;;5008752;28;20053;-50
2022/10/28 00:04:39;;;;;;;9.85;6.63;;;;;;;;;;5024419;28;20099;-51
2022/10/28 00:07:09;;;;;;;14.45;7.72;;;;;;;;;;5013541;28;20050;-49
2022/10/28 00:09:35;;;;;;;11.07;7.18;;;;;;;;;;5020794;28;20049;-50
2022/10/28 00:12:05;;;;;;;12.05;6.40;;;;;;;;;;5026524;28;20061;-48
2022/10/28 00:14:33;;;;;;;8.85;6.10;;;;;;;;;;5012957;28;20057;-49
2022/10/28 00:17:01;;;;;;;10.25;6.30;;;;;;;;;;5024100;28;20055;-48
2022/10/28 00:19:39;;;;;;;10.15;6.40;;;;;;;;;;5014848;28;20048;-48
2022/10/28 00:22:07;;;;;;;12.25;6.80;;;;;;;;;;5011367;28;20471;-47
2022/10/28 00:24:36;;;;;;;13.57;7.63;;;;;;;;;;5022653;28;20046;-49
2022/10/28 00:27:04;;;;;;;13.95;7.13;;;;;;;;;;5020940;28;20128;-46
2022/10/28 00:29:32;;;;;;;13.43;8.32;;;;;;;;;;5013829;28;20046;-48
2022/10/28 00:32:01;;;;;;;11.90;6.85;;;;;;;;;;5011975;28;20129;-49
2022/10/28 00:34:30;;;;;;;11.15;7.30;;;;;;;;;;5009667;28;20057;-48
2022/10/28 00:36:56;;;;;;;10.68;6.80;;;;;;;;;;5012589;28;20050;-48
2022/10/28 00:39:27;;;;;;;10.25;5.60;;;;;;;;;;5012436;28;20124;-47
2022/10/28 00:41:56;;;;;;;10.00;5.28;;;;;;;;;;5026495;28;20061;-48
2022/10/28 00:44:45;;;;;;;8.60;4.82;;;;;;;;;;5006315;28;20054;-48
2022/10/28 00:47:17;;;;;;;9.07;4.93;;;;;;;;;;5003488;28;20042;-51
2022/10/28 00:49:48;;;;;;;10.65;6.63;;;;;;;;;;5003865;28;20049;-47
2022/10/28 00:52:16;;;;;;;10.13;6.63;;;;;;;;;;5012767;28;20049;-48
2022/10/28 00:54:43;;;;;;;9.43;6.20;;;;;;;;;;4999467;28;20054;-48
2022/10/28 00:57:20;;;;;;;9.98;5.35;;;;;;;;;;5006676;28;20057;-48
2022/10/28 00:59:53;;;;;;;10.90;6.22;;;;;;;;;;5018010;28;20058;-49
2022/10/28 01:02:23;;;;;;;8.55;5.93;;;;;;;;;;5012421;28;20057;-48
2022/10/28 01:05:00;;;;;;;9.18;5.53;;;;;;;;;;5013014;28;20731;-47
2022/10/28 01:07:28;;;;;;;16.70;5.72;;;;;;;;;;5012873;28;20125;-49
2022/10/28 01:09:56;;;;;;;25.35;6.63;;;;;;;;;;5025283;28;20060;-51
2022/10/28 01:12:33;;;;;;;13.48;6.63;;;;;;;;;;5016149;28;20060;-48
2022/10/28 01:15:09;;;;;;;16.55;6.07;;;;;;;;;;5016300;28;20525;-51
2022/10/28 01:17:46;;;;;;;11.43;5.40;;;;;;;;;;5002877;28;20107;-48
2022/10/28 01:20:32;;;;;;;12.27;6.03;;;;;;;;;;5016533;28;20061;-48
2022/10/28 01:23:02;;;;;;;15.60;6.00;;;;;;;;;;5022977;28;20045;-48
2022/10/28 01:25:46;;;;;;;13.98;7.00;;;;;;;;;;5020903;28;20045;-49
2022/10/28 01:28:32;;;;;;;19.20;7.35;;;;;;;;;;5013728;28;20095;-47
2022/10/28 01:31:10;;;;;;;14.75;6.97;;;;;;;;;;5014801;28;20049;-47
2022/10/28 01:33:46;;;;;;;15.15;7.00;;;;;;;;;;4997157;28;20061;-46
2022/10/28 01:36:22;;;;;;;15.05;6.90;;;;;;;;;;5003059;28;20054;-47
2022/10/28 01:38:54;;;;;;;22.42;8.45;;;;;;;;;;5015299;28;20050;-45
2022/10/28 01:41:25;;;;;;;16.17;6.80;;;;;;;;;;5002946;28;20046;-46
2022/10/28 01:44:02;;;;;;;19.65;6.35;;;;;;;;;;5016272;28;20042;-45
2022/10/28 01:46:37;;;;;;;25.83;7.00;;;;;;;;;;5015959;28;20164;-46
2022/10/28 01:49:15;;;;;;;17.50;6.15;;;;;;;;;;5014171;28;20045;-46
2022/10/28 01:51:46;;;;;;;34.58;8.02;;;;;;;;;;5019685;28;20045;-48
2022/10/28 01:54:19;;;;;;;34.45;6.95;;;;;;;;;;5016094;28;20076;-45
2022/10/28 01:56:48;;;;;;;23.70;6.97;;;;;;;;;;5020717;28;20050;-48
2022/10/28 01:59:19;;;;;;;24.17;6.55;;;;;;;;;;5001613;28;20058;-45
2022/10/28 02:02:00;;;;;;;29.33;6.35;;;;;;;;;;5034921;28;20068;-45
2022/10/28 02:04:27;;;;;;;89.93;11.95;;;;;;;;;;5035057;28;20057;-46
2022/10/28 02:07:04;;;;;;;68.32;10.30;;;;;;;;;;5016096;28;20053;-46
2022/10/28 02:09:38;;;;;;;37.53;7.93;;;;;;;;;;4996198;28;20422;-45
2022/10/28 02:12:23;;;;;;;59.55;9.18;;;;;;;;;;5012265;28;20064;-45
2022/10/28 02:15:06;;;;;;;31.75;8.35;;;;;;;;;;5002724;28;20050;-46
2022/10/28 02:17:42;;;;;;;86.50;10.93;;;;;;;;;;4997123;28;20549;-46
2022/10/28 02:20:14;;;;;;;122.47;12.38;;;;;;;;;;5011223;28;20069;-46
2022/10/28 02:22:49;;;;;;;115.30;11.63;;;;;;;;;;5014442;28;20054;-49
2022/10/28 02:25:17;;;;;;;113.95;14.95;;;;;;;;;;5018777;28;20063;-45
2022/10/28 02:27:47;;;;;;;101.95;10.43;;;;;;;;;;5032976;28;20465;-46
2022/10/28 02:30:19;;;;;;;93.32;11.30;;;;;;;;;;5029102;28;20057;-45
2022/10/28 02:32:55;;;;;;;30.73;7.35;;;;;;;;;;5027142;28;20050;-47
2022/10/28 02:35:25;;;;;;;49.38;8.52;;;;;;;;;;5008987;28;20059;-45
2022/10/28 02:37:55;;;;;;;79.40;8.75;;;;;;;;;;5029653;28;20053;-48
2022/10/28 02:40:23;;;;;;;71.85;9.95;;;;;;;;;;5018712;28;20066;-45
2022/10/28 02:42:54;;;;;;;75.75;11.13;;;;;;;;;;5011106;28;20070;-45
2022/10/28 02:45:24;;;;;;;28.98;6.15;;;;;;;;;;5015411;28;20577;-46
2022/10/28 02:47:57;;;;;;;50.90;8.75;;;;;;;;;;5002100;28;20062;-46
2022/10/28 02:50:29;;;;;;;44.25;7.65;;;;;;;;;;5006200;28;20050;-45
2022/10/28 02:52:59;;;;;;;46.88;7.93;;;;;;;;;;4996853;28;20519;-46
2022/10/28 02:55:30;;;;;;;36.13;7.25;;;;;;;;;;4995866;28;20137;-49
2022/10/28 02:57:57;;;;;;;75.57;10.40;;;;;;;;;;5001162;28;20486;-46
2022/10/28 03:00:37;;;;;;;95.97;9.68;;;;;;;;;;5011549;28;20054;-46
2022/10/28 03:03:07;;;;;;;45.88;7.30;;;;;;;;;;5021458;28;20111;-46
2022/10/28 03:05:37;;;;;;;45.85;8.07;;;;;;;;;;5028827;28;20088;-46
2022/10/28 03:10:47;;;;;;;41.60;7.35;;;;;;;;;;5026114;28;20057;-46
2022/10/28 03:13:15;;;;;;;25.08;6.70;;;;;;;;;;5031648;28;20463;-45
2022/10/28 03:15:45;;;;;;;30.85;7.63;;;;;;;;;;5013958;28;20057;-46
2022/10/28 03:18:15;;;;;;;16.08;5.85;;;;;;;;;;5024434;28;20499;-46
2022/10/28 03:20:43;;;;;;;17.58;7.03;;;;;;;;;;5027036;28;20041;-49
2022/10/28 03:23:11;;;;;;;14.88;6.95;;;;;;;;;;5033756;28;20056;-46
2022/10/28 03:25:37;;;;;;;16.50;7.70;;;;;;;;;;5032262;28;20045;-45
2022/10/28 03:28:06;;;;;;;13.60;6.60;;;;;;;;;;5033075;28;20045;-47
2022/10/28 03:30:32;;;;;;;10.05;6.25;;;;;;;;;;5014301;28;20104;-44
2022/10/28 03:32:58;;;;;;;10.35;6.68;;;;;;;;;;5022868;28;20512;-49
2022/10/28 03:35:31;;;;;;;9.75;5.63;;;;;;;;;;5026054;28;20046;-46
2022/10/28 03:38:01;;;;;;;11.93;7.30;;;;;;;;;;5026221;28;20053;-47
2022/10/28 03:40:28;;;;;;;13.43;7.63;;;;;;;;;;4995085;28;20161;-46
2022/10/28 03:42:58;;;;;;;8.25;5.53;;;;;;;;;;5020521;28;20054;-45
2022/10/28 03:45:25;;;;;;;9.57;5.85;;;;;;;;;;4994643;28;20118;-48
2022/10/28 03:47:53;;;;;;;13.98;7.00;;;;;;;;;;5023060;28;20414;-46
2022/10/28 03:50:21;;;;;;;11.52;6.10;;;;;;;;;;5024280;28;20432;-47
2022/10/28 03:52:51;;;;;;;14.90;6.72;;;;;;;;;;5029331;28;20057;-45
2022/10/28 03:55:19;;;;;;;12.40;7.38;;;;;;;;;;5025290;28;20061;-46
2022/10/28 03:57:48;;;;;;;17.95;6.88;;;;;;;;;;5007975;28;20046;-46
2022/10/28 04:00:16;;;;;;;26.67;8.07;;;;;;;;;;5012780;28;20057;-45
2022/10/28 04:02:48;;;;;;;10.52;6.32;;;;;;;;;;5028659;28;20046;-46
2022/10/28 04:05:18;;;;;;;26.60;6.80;;;;;;;;;;5026386;28;20103;-45
2022/10/28 04:07:46;;;;;;;14.27;6.22;;;;;;;;;;5026006;28;20689;-46
2022/10/28 04:10:16;;;;;;;20.75;7.75;;;;;;;;;;5012979;28;20054;-46
2022/10/28 04:12:45;;;;;;;28.00;8.35;;;;;;;;;;5031152;28;20075;-46
2022/10/28 04:15:14;;;;;;;28.27;9.27;;;;;;;;;;5033299;28;20045;-46
2022/10/28 04:17:43;;;;;;;19.75;6.65;;;;;;;;;;5000922;28;20120;-45
2022/10/28 04:20:14;;;;;;;38.65;9.60;;;;;;;;;;5013495;28;20053;-47
2022/10/28 04:22:53;;;;;;;20.23;8.35;;;;;;;;;;5005039;28;20053;-45
2022/10/28 04:25:25;;;;;;;19.38;7.20;;;;;;;;;;5007517;28;20129;-48
2022/10/28 04:27:53;;;;;;;25.73;8.77;;;;;;;;;;5005025;28;20049;-48
2022/10/28 04:30:21;;;;;;;26.48;9.13;;;;;;;;;;4995898;28;20058;-48
2022/10/28 04:32:51;;;;;;;17.15;7.53;;;;;;;;;;4996288;28;20062;-47
2022/10/28 04:35:19;;;;;;;23.02;8.35;;;;;;;;;;5000607;28;20065;-48
2022/10/28 04:37:48;;;;;;;19.10;8.93;;;;;;;;;;5013198;28;20050;-47
2022/10/28 04:40:22;;;;;;;20.92;10.15;;;;;;;;;;5017552;28;20070;-49
2022/10/28 04:43:03;;;;;;;12.52;7.47;;;;;;;;;;4998241;28;20054;-46
2022/10/28 04:45:33;;;;;;;14.57;8.48;;;;;;;;;;5004085;28;20111;-50
2022/10/28 04:48:09;;;;;;;23.15;10.38;;;;;;;;;;5013147;28;20076;-46
2022/10/28 04:50:38;;;;;;;16.70;9.60;;;;;;;;;;5025677;28;20065;-50
2022/10/28 04:53:05;;;;;;;14.43;8.88;;;;;;;;;;4999989;28;20402;-47
2022/10/28 04:55:35;;;;;;;17.50;9.80;;;;;;;;;;5025642;28;20050;-49
2022/10/28 04:58:06;;;;;;;16.77;9.23;;;;;;;;;;4999464;28;20050;-47
2022/10/28 05:00:32;;;;;;;15.95;9.52;;;;;;;;;;4997411;28;20690;-47
2022/10/28 05:03:02;;;;;;;17.17;9.23;;;;;;;;;;4998970;28;20051;-47
2022/10/28 05:05:30;;;;;;;15.93;10.15;;;;;;;;;;4993536;28;20142;-48
2022/10/28 05:08:00;;;;;;;17.48;9.43;;;;;;;;;;4993625;28;20047;-49
2022/10/28 05:13:10;;;;;;;16.80;9.32;;;;;;;;;;4994619;28;20452;-49
2022/10/28 05:15:39;;;;;;;17.05;9.32;;;;;;;;;;5011619;28;20053;-48
2022/10/28 05:18:06;;;;;;;19.88;10.60;;;;;;;;;;5013372;28;20353;-49
2022/10/28 05:20:34;;;;;;;21.42;10.93;;;;;;;;;;4997779;28;20090;-52
2022/10/28 05:23:20;;;;;;;23.38;12.55;;;;;;;;;;4994091;28;20054;-51
2022/10/28 05:25:49;;;;;;;25.70;14.00;;;;;;;;;;4995147;28;20046;-49
2022/10/28 05:28:22;;;;;;;22.88;12.95;;;;;;;;;;4994955;28;20046;-49
2022/10/28 05:30:51;;;;;;;22.98;12.90;;;;;;;;;;5003307;28;20054;-52
2022/10/28 05:33:20;;;;;;;20.48;11.75;;;;;;;;;;5001131;28;20085;-48
2022/10/28 05:35:50;;;;;;;25.70;12.52;;;;;;;;;;5012993;28;20045;-48
2022/10/28 05:38:20;;;;;;;20.77;11.52;;;;;;;;;;5008120;28;20050;-46
2022/10/28 05:40:50;;;;;;;27.27;13.05;;;;;;;;;;4992504;28;20050;-46
2022/10/28 05:43:18;;;;;;;19.55;11.35;;;;;;;;;;5016273;28;20049;-48
2022/10/28 05:45:51;;;;;;;18.05;10.43;;;;;;;;;;5029064;28;20384;-47
2022/10/28 05:48:20;;;;;;;18.73;10.30;;;;;;;;;;5030576;28;20462;-46
2022/10/28 05:50:49;;;;;;;20.98;10.27;;;;;;;;;;5030178;28;20119;-50
2022/10/28 05:53:16;;;;;;;24.20;12.98;;;;;;;;;;5017303;28;20061;-47
2022/10/28 05:55:46;;;;;;;25.67;14.02;;;;;;;;;;5003094;28;20078;-50
2022/10/28 05:58:16;;;;;;;19.67;11.60;;;;;;;;;;5004404;28;20076;-48
2022/10/28 06:00:42;;;;;;;27.33;12.70;;;;;;;;;;5022716;28;20050;-49
2022/10/28 06:03:17;;;;;;;25.92;12.93;;;;;;;;;;5035068;28;20159;-50
2022/10/28 06:05:46;;;;;;;28.23;13.07;;;;;;;;;;5004284;28;20062;-46
2022/10/28 06:08:14;;;;;;;22.05;12.57;;;;;;;;;;5003305;28;20061;-46
2022/10/28 06:10:44;;;;;;;24.63;12.25;;;;;;;;;;5019454;28;20053;-48
2022/10/28 06:13:12;;;;;;;20.70;9.93;;;;;;;;;;5017630;28;20081;-46
2022/10/28 06:15:39;;;;;;;23.83;13.35;;;;;;;;;;5009085;28;20133;-46
2022/10/28 06:18:07;;;;;;;23.05;12.35;;;;;;;;;;5006153;28;20050;-46
2022/10/28 06:20:53;;;;;;;17.73;10.38;;;;;;;;;;5025110;28;20053;-46
2022/10/28 06:23:20;;;;;;;26.58;12.85;;;;;;;;;;5017883;28;20057;-47
2022/10/28 06:25:47;;;;;;;27.02;12.95;;;;;;;;;;5026965;28;20061;-48
2022/10/28 06:28:17;;;;;;;25.35;13.20;;;;;;;;;;5000804;28;20468;-48
2022/10/28 06:30:46;;;;;;;19.95;10.35;;;;;;;;;;5000286;28;20049;-50
2022/10/28 06:33:16;;;;;;;27.73;14.38;;;;;;;;;;5017501;28;20066;-51
2022/10/28 06:35:46;;;;;;;26.15;13.60;;;;;;;;;;5005333;28;20054;-51
2022/10/28 06:38:15;;;;;;;30.58;12.77;;;;;;;;;;5007338;28;20054;-50
2022/10/28 06:40:42;;;;;;;31.58;14.77;;;;;;;;;;5010635;28;20041;-49
2022/10/28 06:43:13;;;;;;;24.80;11.32;;;;;;;;;;5013750;28;20450;-49
2022/10/28 06:45:44;;;;;;;27.40;15.05;;;;;;;;;;5024885;28;20433;-48
2022/10/28 06:48:11;;;;;;;33.92;15.52;;;;;;;;;;5015740;28;20057;-50
2022/10/28 06:50:39;;;;;;;32.90;13.82;;;;;;;;;;5021653;28;20390;-49
2022/10/28 06:53:12;;;;;;;28.65;12.05;;;;;;;;;;5029583;28;20081;-50
2022/10/28 06:55:41;;;;;;;30.73;15.02;;;;;;;;;;5018539;28;20053;-49
2022/10/28 06:58:07;;;;;;;24.08;12.18;;;;;;;;;;5013108;28;20371;-50
2022/10/28 07:00:35;;;;;;;28.15;14.40;;;;;;;;;;5022608;28;20037;-48
2022/10/28 07:03:03;;;;;;;33.30;13.45;;;;;;;;;;5013587;28;20510;-48
2022/10/28 07:05:29;;;;;;;39.55;14.65;;;;;;;;;;5013322;28;20046;-49
2022/10/28 07:07:59;;;;;;;26.00;13.00;;;;;;;;;;5020239;28;20056;-50
2022/10/28 07:10:29;;;;;;;26.48;13.57;;;;;;;;;;5013348;28;20144;-50
2022/10/28 07:12:58;;;;;;;25.02;11.55;;;;;;;;;;4997645;28;20046;-51
2022/10/28 07:15:26;;;;;;;29.33;13.98;;;;;;;;;;5007306;28;20133;-50
2022/10/28 07:17:54;;;;;;;29.20;12.32;;;;;;;;;;5013731;28;20308;-51
2022/10/28 07:20:23;;;;;;;26.73;13.80;;;;;;;;;;5007498;28;20475;-49
2022/10/28 07:22:55;;;;;;;27.15;13.95;;;;;;;;;;5013359;28;20129;-49
2022/10/28 07:25:21;;;;;;;24.88;12.93;;;;;;;;;;5009653;28;20140;-49
2022/10/28 07:27:51;;;;;;;24.02;12.93;;;;;;;;;;5001937;28;20049;-49
2022/10/28 07:30:21;;;;;;;31.23;14.93;;;;;;;;;;5004181;28;20061;-54
2022/10/28 07:32:50;;;;;;;29.80;12.70;;;;;;;;;;5011855;28;20059;-51
2022/10/28 07:35:19;;;;;;;31.33;15.18;;;;;;;;;;5018319;28;20057;-50
2022/10/28 07:37:47;;;;;;;30.17;15.13;;;;;;;;;;5018833;28;20076;-51
2022/10/28 07:40:18;;;;;;;27.73;13.48;;;;;;;;;;5009290;28;20057;-49
2022/10/28 07:42:46;;;;;;;30.85;14.90;;;;;;;;;;5013494;28;20380;-49
2022/10/28 07:45:16;;;;;;;27.75;12.80;;;;;;;;;;5010711;28;20052;-51
2022/10/28 07:47:45;;;;;;;29.02;12.73;;;;;;;;;;5015569;28;20111;-50
2022/10/28 07:50:14;;;;;;;33.88;15.07;;;;;;;;;;5015350;28;20056;-49
2022/10/28 07:52:41;;;;;;;29.10;15.25;;;;;;;;;;5007977;28;20054;-51
2022/10/28 07:55:17;;;;;;;27.42;13.98;;;;;;;;;;5007695;28;20049;-50
2022/10/28 07:57:45;;;;;;;31.38;15.85;;;;;;;;;;5010220;28;20125;-49
2022/10/28 08:00:29;;;;;;;28.55;15.02;;;;;;;;;;5004306;28;20050;-48
2022/10/28 08:02:56;;;;;;;28.63;13.80;;;;;;;;;;5013988;28;20064;-48
2022/10/28 08:05:23;;;;;;;35.08;16.05;;;;;;;;;;5003348;28;20439;-48
2022/10/28 08:07:52;;;;;;;29.65;14.48;;;;;;;;;;5013833;28;20053;-49
2022/10/28 08:10:21;;;;;;;28.67;13.77;;;;;;;;;;5013271;28;20042;-50
2022/10/28 08:12:51;;;;;;;26.60;13.73;;;;;;;;;;5009157;28;20168;-48
2022/10/28 08:15:22;;;;;;;26.98;13.30;;;;;;;;;;5005773;28;20144;-49
2022/10/28 08:17:52;;;;;;;21.52;11.63;;;;;;;;;;5014952;28;20485;-48
2022/10/28 08:20:19;;;;;;;25.08;13.70;;;;;;;;;;5002468;28;20650;-53
2022/10/28 08:22:47;;;;;;;30.80;14.43;;;;;;;;;;5009063;28;20056;-49
2022/10/28 08:25:14;;;;;;;28.65;13.75;;;;;;;;;;5004222;28;20057;-48
2022/10/28 08:27:44;;;;;;;27.20;13.02;;;;;;;;;;5012459;28;20050;-48
2022/10/28 08:30:21;;;;;;;33.72;15.05;;;;;;;;;;5005530;28;20128;-47
2022/10/28 08:32:51;;;;;;;31.65;14.20;;;;;;;;;;5003291;28;20078;-47
2022/10/28 08:35:21;;;;;;;29.63;14.40;;;;;;;;;;5015326;28;20050;-47
2022/10/28 08:37:51;;;;;;;26.13;12.75;;;;;;;;;;5004561;28;20104;-49
2022/10/28 08:40:20;;;;;;;30.17;14.30;;;;;;;;;;5010730;28;20423;-49
2022/10/28 08:42:57;;;;;;;29.35;13.18;;;;;;;;;;5007261;28;20332;-51
2022/10/28 08:45:32;;;;;;;28.17;13.48;;;;;;;;;;5002927;28;20050;-49
2022/10/28 08:48:09;;;;;;;24.20;11.15;;;;;;;;;;4997161;28;20356;-48
2022/10/28 08:50:45;;;;;;;25.67;11.88;;;;;;;;;;4996196;28;20046;-49
2022/10/28 08:53:15;;;;;;;34.25;15.25;;;;;;;;;;5000256;28;20068;-48
2022/10/28 08:55:44;;;;;;;26.30;12.95;;;;;;;;;;5009259;28;20054;-49
2022/10/28 08:58:15;;;;;;;31.55;12.50;;;;;;;;;;5014198;28;20623;-48
2022/10/28 09:00:44;;;;;;;27.75;14.38;;;;;;;;;;5007651;28;20061;-49
2022/10/28 09:03:19;;;;;;;30.75;12.52;;;;;;;;;;5023194;28;20058;-48
2022/10/28 09:05:48;;;;;;;31.83;13.85;;;;;;;;;;5014439;28;20120;-49
2022/10/28 09:08:20;;;;;;;30.10;13.50;;;;;;;;;;4997298;28;20046;-51
2022/10/28 09:11:01;;;;;;;27.15;13.38;;;;;;;;;;5012807;28;20048;-50
2022/10/28 09:13:32;;;;;;;27.92;14.35;;;;;;;;;;4998979;28;20134;-49
2022/10/28 09:16:03;;;;;;;27.25;14.55;;;;;;;;;;4999063;28;20050;-51
2022/10/28 09:18:48;;;;;;;28.15;14.60;;;;;;;;;;4996095;28;20400;-49
2022/10/28 09:21:24;;;;;;;25.17;14.00;;;;;;;;;;4992868;28;20137;-49
2022/10/28 09:23:54;;;;;;;28.90;16.15;;;;;;;;;;5003935;28;20077;-51
2022/10/28 09:26:30;;;;;;;39.58;18.02;;;;;;;;;;4996042;28;20093;-52
2022/10/28 09:29:04;;;;;;;34.28;17.63;;;;;;;;;;5008646;28;20459;-50
2022/10/28 09:31:44;;;;;;;23.55;12.45;;;;;;;;;;4996767;28;20462;-49
2022/10/28 09:34:24;;;;;;;27.13;13.55;;;;;;;;;;5000101;28;20061;-51
2022/10/28 09:37:08;;;;;;;29.13;15.88;;;;;;;;;;5010325;28;20049;-50
2022/10/28 09:39:42;;;;;;;26.80;14.38;;;;;;;;;;5010441;28;20042;-49
2022/10/28 09:42:16;;;;;;;28.02;15.80;;;;;;;;;;5013015;28;20092;-49
2022/10/28 09:44:53;;;;;;;29.30;14.77;;;;;;;;;;5020514;28;20042;-49
2022/10/28 09:47:23;;;;;;;25.40;13.63;;;;;;;;;;5025435;28;20383;-50
2022/10/28 09:49:53;;;;;;;25.80;14.82;;;;;;;;;;5008849;28;20121;-50
2022/10/28 09:52:25;;;;;;;28.50;15.45;;;;;;;;;;5000719;28;20050;-50
2022/10/28 09:54:55;;;;;;;29.83;16.05;;;;;;;;;;5010247;28;20049;-50
2022/10/28 09:57:37;;;;;;;25.50;15.27;;;;;;;;;;5014496;28;20058;-50
2022/10/28 10:00:06;;;;;;;29.25;16.38;;;;;;;;;;5008840;28;20085;-51
2022/10/28 10:02:34;;;;;;;27.05;15.55;;;;;;;;;;5004209;28;20565;-50
2022/10/28 10:05:11;;;;;;;25.48;14.73;;;;;;;;;;5008140;28;20434;-52
2022/10/28 10:07:55;;;;;;;29.48;15.40;;;;;;;;;;5014079;28;20078;-49
2022/10/28 10:10:26;;;;;;;28.80;15.35;;;;;;;;;;5009964;28;20056;-52
2022/10/28 10:12:55;;;;;;;27.02;15.05;;;;;;;;;;5025896;28;20093;-51
2022/10/28 10:15:27;;;;;;;27.65;15.20;;;;;;;;;;5011445;28;20345;-49
2022/10/28 10:17:57;;;;;;;28.30;15.65;;;;;;;;;;5007793;28;20458;-49
2022/10/28 10:20:24;;;;;;;26.80;15.20;;;;;;;;;;5001695;28;20057;-49
2022/10/28 10:22:56;;;;;;;27.13;14.48;;;;;;;;;;5007401;28;20061;-50
2022/10/28 10:25:25;;;;;;;23.60;14.60;;;;;;;;;;5022024;28;20136;-50
2022/10/28 10:27:56;;;;;;;26.65;14.38;;;;;;;;;;5001352;28;20062;-50
2022/10/28 10:30:25;;;;;;;27.38;14.07;;;;;;;;;;5002724;28;20355;-50
2022/10/28 10:32:55;;;;;;;28.30;14.48;;;;;;;;;;5003549;28;20058;-51
2022/10/28 10:35:25;;;;;;;26.73;13.98;;;;;;;;;;4997288;28;20379;-50
2022/10/28 10:38:07;;;;;;;29.88;14.32;;;;;;;;;;5012805;28;20472;-49
2022/10/28 10:40:44;;;;;;;29.25;15.02;;;;;;;;;;5021230;28;20617;-50
2022/10/28 10:43:20;;;;;;;23.75;13.75;;;;;;;;;;5020515;28;20049;-48
2022/10/28 10:45:52;;;;;;;28.40;16.02;;;;;;;;;;5004288;28;20068;-48
2022/10/28 10:48:22;;;;;;;24.98;15.32;;;;;;;;;;5007034;28;20383;-49
2022/10/28 10:50:51;;;;;;;26.65;15.13;;;;;;;;;;5018069;28;20512;-53
2022/10/28 10:53:22;;;;;;;24.55;13.60;;;;;;;;;;5014040;28;20116;-51
2022/10/28 10:55:54;;;;;;;27.42;14.63;;;;;;;;;;5005688;28;20062;-48
2022/10/28 10:58:24;;;;;;;30.73;15.82;;;;;;;;;;5012378;28;20057;-48
2022/10/28 11:00:54;;;;;;;23.90;15.00;;;;;;;;;;5022038;28;20722;-51
2022/10/28 11:03:26;;;;;;;27.08;13.88;;;;;;;;;;5023513;28;20053;-48
2022/10/28 11:05:58;;;;;;;29.65;14.02;;;;;;;;;;5005200;28;20597;-48
2022/10/28 11:08:32;;;;;;;27.33;15.45;;;;;;;;;;5015628;28;20050;-50
2022/10/28 11:11:06;;;;;;;26.88;15.43;;;;;;;;;;5018922;28;20435;-50
2022/10/28 11:13:36;;;;;;;25.17;13.80;;;;;;;;;;5012418;28;20050;-53
2022/10/28 11:16:07;;;;;;;25.55;13.90;;;;;;;;;;5018556;28;20522;-50
2022/10/28 11:18:42;;;;;;;24.75;14.88;;;;;;;;;;5017364;28;20100;-50
2022/10/28 11:21:18;;;;;;;21.50;13.85;;;;;;;;;;5009245;28;20045;-50
2022/10/28 11:23:54;;;;;;;26.90;14.35;;;;;;;;;;5014493;28;20050;-49
2022/10/28 11:26:22;;;;;;;24.13;15.32;;;;;;;;;;5021363;28;20450;-50
2022/10/28 11:28:58;;;;;;;25.90;14.85;;;;;;;;;;5015658;28;20055;-49
2022/10/28 11:31:33;;;;;;;21.52;13.75;;;;;;;;;;5017523;28;20046;-53
2022/10/28 11:34:11;;;;;;;22.60;14.65;;;;;;;;;;5002973;28;20444;-55
2022/10/28 11:36:43;;;;;;;23.73;13.43;;;;;;;;;;4999874;28;20046;-51
2022/10/28 11:39:23;;;;;;;22.50;13.93;;;;;;;;;;5004775;28;20065;-51
2022/10/28 11:42:08;;;;;;;28.38;14.18;;;;;;;;;;5001886;28;20360;-52
2022/10/28 11:44:59;;;;;;;23.20;13.25;;;;;;;;;;5003063;28;20045;-53
2022/10/28 11:47:48;;;;;;;23.80;13.13;;;;;;;;;;4999855;28;20051;-50
2022/10/28 11:50:41;;;;;;;24.83;12.98;;;;;;;;;;5011120;28;20053;-50
2022/10/28 11:53:52;;;;;;;20.92;12.15;;;;;;;;;;4988534;28;20045;-51
2022/10/28 11:56:29;;;;;;;17.48;12.10;;;;;;;;;;5007924;28;20050;-51
2022/10/28 11:59:28;;;;;;;22.88;13.48;;;;;;;;;;5001720;28;20066;-50
2022/10/28 12:02:00;;;;;;;17.60;11.30;;;;;;;;;;4998681;28;20038;-51
2022/10/28 12:04:35;;;;;;;20.35;12.48;;;;;;;;;;5005882;28;20068;-50
2022/10/28 12:07:35;;;;;;;25.33;11.70;;;;;;;;;;4997330;28;20050;-50
2022/10/28 12:10:31;;;;;;;18.52;11.02;;;;;;;;;;5004242;28;20395;-50
2022/10/28 12:13:14;;;;;;;17.45;10.18;;;;;;;;;;5007836;28;20053;-49
2022/10/28 12:15:46;;;;;;;17.70;10.10;;;;;;;;;;5018369;28;20049;-51
2022/10/28 12:18:20;;;;;;;16.98;10.32;;;;;;;;;;5010162;28;20061;-51
2022/10/28 12:20:50;;;;;;;18.27;10.82;;;;;;;;;;5017459;28;20046;-53
2022/10/28 12:23:22;;;;;;;15.18;9.35;;;;;;;;;;5011001;28;20054;-51
2022/10/28 12:25:49;;;;;;;15.07;8.88;;;;;;;;;;5013602;28;20507;-51
2022/10/28 12:28:23;;;;;;;15.98;8.70;;;;;;;;;;5011782;28;20594;-52
2022/10/28 12:30:52;;;;;;;14.32;9.00;;;;;;;;;;5015800;28;20046;-53
2022/10/28 12:33:20;;;;;;;17.58;8.98;;;;;;;;;;5014409;28;20053;-51
2022/10/28 12:35:50;;;;;;;17.27;10.00;;;;;;;;;;5011147;28;20045;-52
2022/10/28 12:38:25;;;;;;;21.58;9.35;;;;;;;;;;5011111;28;20049;-50
2022/10/28 12:41:07;;;;;;;18.98;9.05;;;;;;;;;;5006182;28;20074;-50
2022/10/28 12:43:39;;;;;;;16.92;8.75;;;;;;;;;;5009889;28;20057;-50
2022/10/28 12:46:09;;;;;;;15.60;9.05;;;;;;;;;;5000275;28;20058;-51
2022/10/28 12:48:41;;;;;;;14.18;8.82;;;;;;;;;;5005429;28;20049;-54
2022/10/28 12:51:13;;;;;;;14.68;8.65;;;;;;;;;;5005171;28;20041;-53
2022/10/28 12:53:48;;;;;;;17.33;10.40;;;;;;;;;;5004182;28;20053;-49
2022/10/28 12:56:27;;;;;;;21.77;10.55;;;;;;;;;;5013000;28;20077;-48
2022/10/28 12:59:06;;;;;;;18.30;10.77;;;;;;;;;;5004274;28;20331;-49
2022/10/28 13:01:35;;;;;;;16.92;10.32;;;;;;;;;;5000130;28;20371;-50
2022/10/28 13:04:06;;;;;;;17.73;10.68;;;;;;;;;;5005053;28;20111;-53
2022/10/28 13:06:52;;;;;;;17.98;10.57;;;;;;;;;;5001427;28;20057;-49
2022/10/28 13:09:40;;;;;;;21.67;11.05;;;;;;;;;;5017782;28;20054;-49
2022/10/28 13:12:33;;;;;;;19.20;10.90;;;;;;;;;;5010106;28;20045;-49
2022/10/28 13:15:17;;;;;;;18.27;10.35;;;;;;;;;;5001356;28;20042;-51
2022/10/28 13:17:54;;;;;;;25.63;11.77;;;;;;;;;;5005534;28;20054;-49
2022/10/28 13:20:29;;;;;;;20.95;11.05;;;;;;;;;;5015813;28;20061;-51
2022/10/28 13:22:55;;;;;;;;;;;;;;;;;;5005302;28;20529;-51
2022/10/28 13:25:37;;;;;;;20.50;10.57;;;;;;;;;;5014458;28;19929;-50
2022/10/28 13:28:07;;;;;;;17.63;10.32;;;;;;;;;;5015835;28;20054;-50
2022/10/28 13:30:40;;;;;;;18.02;10.93;;;;;;;;;;5012496;28;20451;-50
2022/10/28 13:33:16;;;;;;;20.40;11.63;;;;;;;;;;5004599;28;20046;-52
2022/10/28 13:35:46;;;;;;;20.52;10.88;;;;;;;;;;4999387;28;20054;-49
2022/10/28 13:38:18;;;;;;;19.15;11.00;;;;;;;;;;5003015;28;20058;-54
2022/10/28 13:41:07;;;;;;;15.48;9.90;;;;;;;;;;5001631;28;20072;-53
2022/10/28 13:43:55;;;;;;;19.13;10.68;;;;;;;;;;4999983;28;20124;-53
2022/10/28 13:46:38;;;;;;;16.70;9.82;;;;;;;;;;5006954;28;20505;-53
2022/10/28 13:49:24;;;;;;;19.75;9.98;;;;;;;;;;5006490;28;20054;-50
2022/10/28 13:52:02;;;;;;;15.23;8.80;;;;;;;;;;5012075;28;20475;-51
2022/10/28 13:54:31;;;;;;;18.08;9.77;;;;;;;;;;5012259;28;20100;-50
2022/10/28 13:57:05;;;;;;;17.55;10.27;;;;;;;;;;5011162;28;20137;-51
2022/10/28 13:59:50;;;;;;;18.05;10.68;;;;;;;;;;5007860;28;20058;-50
2022/10/28 14:02:35;;;;;;;18.05;10.27;;;;;;;;;;5012314;28;20046;-52
2022/10/28 14:05:05;;;;;;;18.00;10.63;;;;;;;;;;5002038;28;20116;-52
2022/10/28 14:07:35;;;;;;;16.90;10.82;;;;;;;;;;5007822;28;20061;-50
2022/10/28 14:10:14;;;;;;;15.57;10.68;;;;;;;;;;5012065;28;20137;-51
2022/10/28 14:12:42;;;;;;;15.57;11.27;;;;;;;;;;5002218;28;20042;-50
2022/10/28 14:15:23;;;;;;;16.75;10.00;;;;;;;;;;5010575;28;20452;-50
2022/10/28 14:17:59;;;;;;;13.82;9.73;;;;;;;;;;5006853;28;20058;-51
2022/10/28 14:20:36;;;;;;;17.27;11.18;;;;;;;;;;5011352;28;20054;-51
2022/10/28 14:23:19;;;;;;;17.42;10.70;;;;;;;;;;5013191;28;20454;-50
2022/10/28 14:26:03;;;;;;;19.75;11.40;;;;;;;;;;5009804;28;20054;-51
2022/10/28 14:28:50;;;;;;;14.95;9.68;;;;;;;;;;5015152;28;20131;-50
2022/10/28 14:31:35;;;;;;;18.50;9.90;;;;;;;;;;5014824;28;20054;-56
2022/10/28 14:34:24;;;;;;;19.83;10.75;;;;;;;;;;5011974;28;20046;-52
2022/10/28 14:37:03;;;;;;;18.80;10.95;;;;;;;;;;5007069;28;20415;-51
2022/10/28 14:39:38;;;;;;;22.38;11.32;;;;;;;;;;5015527;28;20057;-52
2022/10/28 14:42:14;;;;;;;17.20;11.13;;;;;;;;;;5008368;28;20112;-50
2022/10/28 14:44:53;;;;;;;19.75;10.68;;;;;;;;;;5013304;28;20473;-51
2022/10/28 14:47:31;;;;;;;15.10;10.20;;;;;;;;;;5014588;28;20085;-49
2022/10/28 14:50:00;;;;;;;14.20;9.35;;;;;;;;;;5015755;28;20458;-54
2022/10/28 14:52:30;;;;;;;17.17;10.50;;;;;;;;;;5019730;28;20084;-50
2022/10/28 14:54:57;;;;;;;14.65;9.50;;;;;;;;;;5014698;28;20112;-51
2022/10/28 14:57:27;;;;;;;13.93;8.32;;;;;;;;;;5014562;28;20053;-54
2022/10/28 14:59:57;;;;;;;16.83;9.90;;;;;;;;;;5013773;28;20383;-50
2022/10/28 15:02:35;;;;;;;16.85;8.88;;;;;;;;;;5011827;28;20049;-54